sensor_id;sensor_type;location;lat;lon;timestamp;P1;durP1;ratioP1;P2;durP2;ratioP2
16037;SDS011;8123;50.906;6.172;2023-02-17T00:03:50;18.97;;;11.30;;
16037;SDS011;8123;50.906;6.172;2023-02-17T00:06:17;21.00;;;12.80;;
16037;SDS011;8123;50.906;6.172;2023-02-17T00:08:45;24.00;;;13.30;;
16037;SDS011;8123;50.906;6.172;2023-02-17T00:11:11;18.70;;;10.53;;
16037;SDS011;8123;50.906;6.172;2023-02-17T00:13:37;18.90;;;10.63;;
16037;SDS011;8123;50.906;6.172;2023-02-17T00:16:37;37.97;;;12.87;;
16037;SDS011;8123;50.906;6.172;2023-02-17T00:18:57;15.43;;;10.27;;
16037;SDS011;8123;50.906;6.172;2023-02-17T00:21:26;19.57;;;11.73;;
16037;SDS011;8123;50.906;6.172;2023-02-17T00:23:55;19.80;;;11.40;;
16037;SDS011;8123;50.906;6.172;2023-02-17T00:26:21;20.10;;;11.50;;
16037;SDS011;8123;50.906;6.172;2023-02-17T00:28:47;23.80;;;11.20;;
16037;SDS011;8123;50.906;6.172;2023-02-17T00:31:18;15.33;;;10.10;;
16037;SDS011;8123;50.906;6.172;2023-02-17T00:33:45;18.73;;;11.37;;
16037;SDS011;8123;50.906;6.172;2023-02-17T00:36:12;14.77;;;10.20;;
16037;SDS011;8123;50.906;6.172;2023-02-17T00:38:41;16.60;;;10.27;;
16037;SDS011;8123;50.906;6.172;2023-02-17T00:41:07;16.87;;;10.93;;
16037;SDS011;8123;50.906;6.172;2023-02-17T00:43:33;18.37;;;9.70;;
16037;SDS011;8123;50.906;6.172;2023-02-17T00:45:58;16.37;;;9.27;;
16037;SDS011;8123;50.906;6.172;2023-02-17T00:48:27;16.50;;;9.67;;
16037;SDS011;8123;50.906;6.172;2023-02-17T00:50:52;14.43;;;10.03;;
16037;SDS011;8123;50.906;6.172;2023-02-17T00:53:18;18.93;;;10.23;;
16037;SDS011;8123;50.906;6.172;2023-02-17T00:55:44;15.23;;;8.43;;
16037;SDS011;8123;50.906;6.172;2023-02-17T00:58:09;15.90;;;9.80;;
16037;SDS011;8123;50.906;6.172;2023-02-17T01:00:35;17.27;;;11.23;;
16037;SDS011;8123;50.906;6.172;2023-02-17T01:03:00;15.50;;;10.00;;
16037;SDS011;8123;50.906;6.172;2023-02-17T01:05:26;15.00;;;10.10;;
16037;SDS011;8123;50.906;6.172;2023-02-17T01:07:52;16.57;;;9.87;;
16037;SDS011;8123;50.906;6.172;2023-02-17T01:10:17;16.47;;;9.33;;
16037;SDS011;8123;50.906;6.172;2023-02-17T01:12:43;13.17;;;9.43;;
16037;SDS011;8123;50.906;6.172;2023-02-17T01:15:09;11.73;;;8.30;;
16037;SDS011;8123;50.906;6.172;2023-02-17T01:17:35;13.47;;;9.23;;
16037;SDS011;8123;50.906;6.172;2023-02-17T01:20:00;14.07;;;9.70;;
16037;SDS011;8123;50.906;6.172;2023-02-17T01:22:26;16.23;;;10.23;;
16037;SDS011;8123;50.906;6.172;2023-02-17T01:24:51;15.70;;;9.70;;
16037;SDS011;8123;50.906;6.172;2023-02-17T01:27:17;16.50;;;10.47;;
16037;SDS011;8123;50.906;6.172;2023-02-17T01:29:43;17.33;;;9.10;;
16037;SDS011;8123;50.906;6.172;2023-02-17T01:32:09;10.80;;;8.97;;
16037;SDS011;8123;50.906;6.172;2023-02-17T01:34:36;13.67;;;9.00;;
16037;SDS011;8123;50.906;6.172;2023-02-17T01:37:01;15.17;;;9.27;;
16037;SDS011;8123;50.906;6.172;2023-02-17T01:39:27;15.27;;;11.20;;
16037;SDS011;8123;50.906;6.172;2023-02-17T01:41:53;12.23;;;9.20;;
16037;SDS011;8123;50.906;6.172;2023-02-17T01:44:19;15.13;;;10.63;;
16037;SDS011;8123;50.906;6.172;2023-02-17T01:46:48;17.93;;;10.43;;
16037;SDS011;8123;50.906;6.172;2023-02-17T01:51:40;12.77;;;9.13;;
16037;SDS011;8123;50.906;6.172;2023-02-17T01:56:37;16.20;;;10.40;;
16037;SDS011;8123;50.906;6.172;2023-02-17T01:59:09;14.70;;;9.00;;
16037;SDS011;8123;50.906;6.172;2023-02-17T02:01:36;14.20;;;8.87;;
16037;SDS011;8123;50.906;6.172;2023-02-17T02:04:04;15.60;;;11.10;;
16037;SDS011;8123;50.906;6.172;2023-02-17T02:06:31;14.53;;;11.27;;
16037;SDS011;8123;50.906;6.172;2023-02-17T02:09:03;14.70;;;10.17;;
16037;SDS011;8123;50.906;6.172;2023-02-17T02:11:38;17.23;;;10.70;;
16037;SDS011;8123;50.906;6.172;2023-02-17T02:14:04;15.90;;;9.87;;
16037;SDS011;8123;50.906;6.172;2023-02-17T02:16:45;15.30;;;10.40;;
16037;SDS011;8123;50.906;6.172;2023-02-17T02:19:38;22.27;;;10.67;;
16037;SDS011;8123;50.906;6.172;2023-02-17T02:24:44;11.43;;;8.53;;
16037;SDS011;8123;50.906;6.172;2023-02-17T02:27:30;13.70;;;9.87;;
16037;SDS011;8123;50.906;6.172;2023-02-17T02:30:02;16.07;;;10.80;;
16037;SDS011;8123;50.906;6.172;2023-02-17T02:35:37;15.40;;;10.30;;
16037;SDS011;8123;50.906;6.172;2023-02-17T02:40:39;17.10;;;11.70;;
16037;SDS011;8123;50.906;6.172;2023-02-17T02:43:12;14.23;;;9.80;;
16037;SDS011;8123;50.906;6.172;2023-02-17T02:45:39;15.00;;;10.27;;
16037;SDS011;8123;50.906;6.172;2023-02-17T02:48:05;13.23;;;9.57;;
16037;SDS011;8123;50.906;6.172;2023-02-17T02:56:14;13.20;;;9.83;;
16037;SDS011;8123;50.906;6.172;2023-02-17T03:04:11;17.53;;;9.97;;
16037;SDS011;8123;50.906;6.172;2023-02-17T03:06:48;17.17;;;10.90;;
16037;SDS011;8123;50.906;6.172;2023-02-17T03:09:25;15.07;;;9.87;;
16037;SDS011;8123;50.906;6.172;2023-02-17T03:11:55;14.40;;;9.80;;
16037;SDS011;8123;50.906;6.172;2023-02-17T03:14:22;16.83;;;10.10;;
16037;SDS011;8123;50.906;6.172;2023-02-17T03:16:49;13.73;;;9.70;;
16037;SDS011;8123;50.906;6.172;2023-02-17T03:19:16;12.53;;;9.60;;
16037;SDS011;8123;50.906;6.172;2023-02-17T03:21:57;18.97;;;10.53;;
16037;SDS011;8123;50.906;6.172;2023-02-17T03:24:40;15.17;;;9.90;;
16037;SDS011;8123;50.906;6.172;2023-02-17T03:27:06;13.13;;;9.53;;
16037;SDS011;8123;50.906;6.172;2023-02-17T03:29:31;13.77;;;9.23;;
16037;SDS011;8123;50.906;6.172;2023-02-17T03:31:57;12.43;;;10.03;;
16037;SDS011;8123;50.906;6.172;2023-02-17T03:34:23;13.10;;;9.27;;
16037;SDS011;8123;50.906;6.172;2023-02-17T03:36:49;12.97;;;9.30;;
16037;SDS011;8123;50.906;6.172;2023-02-17T03:39:14;12.57;;;9.13;;
16037;SDS011;8123;50.906;6.172;2023-02-17T03:41:40;14.30;;;9.87;;
16037;SDS011;8123;50.906;6.172;2023-02-17T03:44:06;12.60;;;9.57;;
16037;SDS011;8123;50.906;6.172;2023-02-17T03:46:32;13.87;;;10.10;;
16037;SDS011;8123;50.906;6.172;2023-02-17T03:48:57;24.00;;;9.23;;
16037;SDS011;8123;50.906;6.172;2023-02-17T03:51:23;13.43;;;9.90;;
16037;SDS011;8123;50.906;6.172;2023-02-17T03:53:50;12.40;;;9.10;;
16037;SDS011;8123;50.906;6.172;2023-02-17T03:56:16;17.03;;;10.30;;
16037;SDS011;8123;50.906;6.172;2023-02-17T03:58:42;13.00;;;9.57;;
16037;SDS011;8123;50.906;6.172;2023-02-17T04:01:08;13.20;;;9.67;;
16037;SDS011;8123;50.906;6.172;2023-02-17T04:03:35;12.07;;;9.70;;
16037;SDS011;8123;50.906;6.172;2023-02-17T04:06:02;12.40;;;10.20;;
16037;SDS011;8123;50.906;6.172;2023-02-17T04:08:28;13.00;;;10.83;;
16037;SDS011;8123;50.906;6.172;2023-02-17T04:10:55;13.87;;;10.37;;
16037;SDS011;8123;50.906;6.172;2023-02-17T04:13:23;10.77;;;8.67;;
16037;SDS011;8123;50.906;6.172;2023-02-17T04:15:49;11.67;;;9.47;;
16037;SDS011;8123;50.906;6.172;2023-02-17T04:18:16;12.07;;;9.53;;
16037;SDS011;8123;50.906;6.172;2023-02-17T04:20:42;14.23;;;9.80;;
16037;SDS011;8123;50.906;6.172;2023-02-17T04:23:08;15.17;;;10.10;;
16037;SDS011;8123;50.906;6.172;2023-02-17T04:25:34;21.30;;;9.40;;
16037;SDS011;8123;50.906;6.172;2023-02-17T04:28:01;10.30;;;8.17;;
16037;SDS011;8123;50.906;6.172;2023-02-17T04:30:27;17.30;;;8.80;;
16037;SDS011;8123;50.906;6.172;2023-02-17T04:32:53;14.60;;;10.17;;
16037;SDS011;8123;50.906;6.172;2023-02-17T04:35:19;14.50;;;9.10;;
16037;SDS011;8123;50.906;6.172;2023-02-17T04:37:44;12.43;;;8.93;;
16037;SDS011;8123;50.906;6.172;2023-02-17T04:40:10;14.37;;;9.77;;
16037;SDS011;8123;50.906;6.172;2023-02-17T04:42:36;12.90;;;9.23;;
16037;SDS011;8123;50.906;6.172;2023-02-17T04:45:02;13.83;;;9.30;;
16037;SDS011;8123;50.906;6.172;2023-02-17T04:47:29;11.13;;;8.33;;
16037;SDS011;8123;50.906;6.172;2023-02-17T04:49:55;15.63;;;8.80;;
16037;SDS011;8123;50.906;6.172;2023-02-17T04:52:20;9.03;;;7.80;;
16037;SDS011;8123;50.906;6.172;2023-02-17T04:54:46;11.50;;;8.87;;
16037;SDS011;8123;50.906;6.172;2023-02-17T04:57:11;13.23;;;8.80;;
16037;SDS011;8123;50.906;6.172;2023-02-17T04:59:37;9.97;;;6.70;;
16037;SDS011;8123;50.906;6.172;2023-02-17T05:02:03;9.80;;;7.80;;
16037;SDS011;8123;50.906;6.172;2023-02-17T05:04:28;16.67;;;9.53;;
16037;SDS011;8123;50.906;6.172;2023-02-17T05:06:54;10.13;;;7.90;;
16037;SDS011;8123;50.906;6.172;2023-02-17T05:09:20;9.67;;;8.30;;
16037;SDS011;8123;50.906;6.172;2023-02-17T05:11:45;10.47;;;8.30;;
16037;SDS011;8123;50.906;6.172;2023-02-17T05:14:11;14.40;;;8.63;;
16037;SDS011;8123;50.906;6.172;2023-02-17T05:16:37;8.60;;;7.70;;
16037;SDS011;8123;50.906;6.172;2023-02-17T05:19:02;14.63;;;8.30;;
16037;SDS011;8123;50.906;6.172;2023-02-17T05:21:28;13.27;;;8.60;;
16037;SDS011;8123;50.906;6.172;2023-02-17T05:23:54;11.07;;;8.03;;
16037;SDS011;8123;50.906;6.172;2023-02-17T05:26:19;12.67;;;8.40;;
16037;SDS011;8123;50.906;6.172;2023-02-17T05:28:45;11.23;;;7.77;;
16037;SDS011;8123;50.906;6.172;2023-02-17T05:31:10;11.53;;;7.10;;
16037;SDS011;8123;50.906;6.172;2023-02-17T05:33:36;10.00;;;8.17;;
16037;SDS011;8123;50.906;6.172;2023-02-17T05:36:02;8.37;;;7.10;;
16037;SDS011;8123;50.906;6.172;2023-02-17T05:38:30;12.70;;;8.70;;
16037;SDS011;8123;50.906;6.172;2023-02-17T05:40:55;12.13;;;7.53;;
16037;SDS011;8123;50.906;6.172;2023-02-17T05:43:21;9.90;;;8.70;;
16037;SDS011;8123;50.906;6.172;2023-02-17T05:45:47;16.50;;;7.67;;
16037;SDS011;8123;50.906;6.172;2023-02-17T05:48:12;18.07;;;10.17;;
16037;SDS011;8123;50.906;6.172;2023-02-17T05:50:38;11.10;;;7.70;;
16037;SDS011;8123;50.906;6.172;2023-02-17T05:53:04;12.13;;;7.93;;
16037;SDS011;8123;50.906;6.172;2023-02-17T05:55:29;11.20;;;7.73;;
16037;SDS011;8123;50.906;6.172;2023-02-17T05:57:55;9.47;;;7.57;;
16037;SDS011;8123;50.906;6.172;2023-02-17T06:00:21;9.30;;;7.37;;
16037;SDS011;8123;50.906;6.172;2023-02-17T06:02:47;10.70;;;7.90;;
16037;SDS011;8123;50.906;6.172;2023-02-17T06:05:13;12.27;;;8.20;;
16037;SDS011;8123;50.906;6.172;2023-02-17T06:07:39;11.77;;;8.70;;
16037;SDS011;8123;50.906;6.172;2023-02-17T06:10:04;7.97;;;6.77;;
16037;SDS011;8123;50.906;6.172;2023-02-17T06:12:31;16.20;;;7.90;;
16037;SDS011;8123;50.906;6.172;2023-02-17T06:14:56;10.50;;;7.70;;
16037;SDS011;8123;50.906;6.172;2023-02-17T06:17:22;11.90;;;7.87;;
16037;SDS011;8123;50.906;6.172;2023-02-17T06:19:47;15.10;;;7.30;;
16037;SDS011;8123;50.906;6.172;2023-02-17T06:22:13;13.73;;;8.13;;
16037;SDS011;8123;50.906;6.172;2023-02-17T06:24:39;11.23;;;7.77;;
16037;SDS011;8123;50.906;6.172;2023-02-17T06:27:04;9.90;;;7.50;;
16037;SDS011;8123;50.906;6.172;2023-02-17T06:29:30;11.33;;;8.90;;
16037;SDS011;8123;50.906;6.172;2023-02-17T06:31:56;13.43;;;7.67;;
16037;SDS011;8123;50.906;6.172;2023-02-17T06:34:21;10.87;;;8.17;;
16037;SDS011;8123;50.906;6.172;2023-02-17T06:36:47;10.93;;;7.80;;
16037;SDS011;8123;50.906;6.172;2023-02-17T06:39:13;10.90;;;7.67;;
16037;SDS011;8123;50.906;6.172;2023-02-17T06:41:38;12.10;;;7.37;;
16037;SDS011;8123;50.906;6.172;2023-02-17T06:44:04;8.67;;;6.47;;
16037;SDS011;8123;50.906;6.172;2023-02-17T06:46:30;12.10;;;7.73;;
16037;SDS011;8123;50.906;6.172;2023-02-17T06:48:55;16.00;;;9.23;;
16037;SDS011;8123;50.906;6.172;2023-02-17T06:51:21;11.33;;;8.53;;
16037;SDS011;8123;50.906;6.172;2023-02-17T06:53:47;17.30;;;7.17;;
16037;SDS011;8123;50.906;6.172;2023-02-17T06:56:12;9.93;;;7.30;;
16037;SDS011;8123;50.906;6.172;2023-02-17T06:58:38;16.90;;;8.30;;
16037;SDS011;8123;50.906;6.172;2023-02-17T07:01:04;12.13;;;7.40;;
16037;SDS011;8123;50.906;6.172;2023-02-17T07:03:30;10.20;;;7.40;;
16037;SDS011;8123;50.906;6.172;2023-02-17T07:05:56;10.83;;;8.23;;
16037;SDS011;8123;50.906;6.172;2023-02-17T07:08:23;12.20;;;8.50;;
16037;SDS011;8123;50.906;6.172;2023-02-17T07:10:49;10.73;;;7.73;;
16037;SDS011;8123;50.906;6.172;2023-02-17T07:13:14;13.00;;;8.27;;
16037;SDS011;8123;50.906;6.172;2023-02-17T07:15:40;12.03;;;8.37;;
16037;SDS011;8123;50.906;6.172;2023-02-17T07:18:06;13.17;;;7.90;;
16037;SDS011;8123;50.906;6.172;2023-02-17T07:20:32;13.67;;;9.40;;
16037;SDS011;8123;50.906;6.172;2023-02-17T07:22:59;13.07;;;8.70;;
16037;SDS011;8123;50.906;6.172;2023-02-17T07:25:25;11.60;;;9.70;;
16037;SDS011;8123;50.906;6.172;2023-02-17T07:27:50;12.47;;;8.90;;
16037;SDS011;8123;50.906;6.172;2023-02-17T07:30:16;12.07;;;8.50;;
16037;SDS011;8123;50.906;6.172;2023-02-17T07:32:42;9.83;;;8.00;;
16037;SDS011;8123;50.906;6.172;2023-02-17T07:35:08;11.03;;;7.83;;
16037;SDS011;8123;50.906;6.172;2023-02-17T07:37:34;12.13;;;7.90;;
16037;SDS011;8123;50.906;6.172;2023-02-17T07:39:59;11.53;;;8.83;;
16037;SDS011;8123;50.906;6.172;2023-02-17T07:42:28;11.63;;;9.10;;
16037;SDS011;8123;50.906;6.172;2023-02-17T07:44:53;12.90;;;9.40;;
16037;SDS011;8123;50.906;6.172;2023-02-17T07:47:19;11.80;;;8.70;;
16037;SDS011;8123;50.906;6.172;2023-02-17T07:49:45;16.87;;;8.60;;
16037;SDS011;8123;50.906;6.172;2023-02-17T07:52:10;11.63;;;8.57;;
16037;SDS011;8123;50.906;6.172;2023-02-17T07:54:36;10.43;;;8.20;;
16037;SDS011;8123;50.906;6.172;2023-02-17T07:57:02;9.90;;;7.40;;
16037;SDS011;8123;50.906;6.172;2023-02-17T07:59:27;10.50;;;8.23;;
16037;SDS011;8123;50.906;6.172;2023-02-17T08:01:53;11.27;;;8.80;;
16037;SDS011;8123;50.906;6.172;2023-02-17T08:04:19;9.97;;;8.30;;
16037;SDS011;8123;50.906;6.172;2023-02-17T08:06:44;9.20;;;6.17;;
16037;SDS011;8123;50.906;6.172;2023-02-17T08:09:10;14.87;;;7.73;;
16037;SDS011;8123;50.906;6.172;2023-02-17T08:11:54;10.80;;;7.73;;
16037;SDS011;8123;50.906;6.172;2023-02-17T08:14:42;7.93;;;6.37;;
16037;SDS011;8123;50.906;6.172;2023-02-17T08:17:07;12.17;;;7.90;;
16037;SDS011;8123;50.906;6.172;2023-02-17T08:19:33;11.80;;;7.47;;
16037;SDS011;8123;50.906;6.172;2023-02-17T08:21:58;8.27;;;7.27;;
16037;SDS011;8123;50.906;6.172;2023-02-17T08:24:24;9.37;;;7.80;;
16037;SDS011;8123;50.906;6.172;2023-02-17T08:26:51;10.03;;;7.90;;
16037;SDS011;8123;50.906;6.172;2023-02-17T08:29:17;9.20;;;7.00;;
16037;SDS011;8123;50.906;6.172;2023-02-17T08:31:44;11.50;;;7.47;;
16037;SDS011;8123;50.906;6.172;2023-02-17T08:34:10;7.73;;;6.47;;
16037;SDS011;8123;50.906;6.172;2023-02-17T08:36:36;9.77;;;5.90;;
16037;SDS011;8123;50.906;6.172;2023-02-17T08:39:08;8.90;;;7.83;;
16037;SDS011;8123;50.906;6.172;2023-02-17T08:41:36;9.20;;;7.13;;
16037;SDS011;8123;50.906;6.172;2023-02-17T08:44:13;9.20;;;6.90;;
16037;SDS011;8123;50.906;6.172;2023-02-17T08:46:41;6.37;;;5.77;;
16037;SDS011;8123;50.906;6.172;2023-02-17T08:49:08;8.00;;;6.17;;
16037;SDS011;8123;50.906;6.172;2023-02-17T08:51:34;12.13;;;6.70;;
16037;SDS011;8123;50.906;6.172;2023-02-17T08:54:00;8.10;;;5.90;;
16037;SDS011;8123;50.906;6.172;2023-02-17T08:56:28;8.50;;;6.53;;
16037;SDS011;8123;50.906;6.172;2023-02-17T08:58:53;6.93;;;6.27;;
16037;SDS011;8123;50.906;6.172;2023-02-17T09:01:20;8.20;;;7.10;;
16037;SDS011;8123;50.906;6.172;2023-02-17T09:03:47;8.47;;;6.27;;
16037;SDS011;8123;50.906;6.172;2023-02-17T09:06:14;9.67;;;6.47;;
16037;SDS011;8123;50.906;6.172;2023-02-17T09:08:41;10.30;;;6.67;;
16037;SDS011;8123;50.906;6.172;2023-02-17T09:11:07;6.13;;;5.40;;
16037;SDS011;8123;50.906;6.172;2023-02-17T09:13:33;7.90;;;6.10;;
16037;SDS011;8123;50.906;6.172;2023-02-17T09:15:59;7.80;;;5.93;;
16037;SDS011;8123;50.906;6.172;2023-02-17T09:18:26;6.07;;;5.47;;
16037;SDS011;8123;50.906;6.172;2023-02-17T09:20:52;8.10;;;5.50;;
16037;SDS011;8123;50.906;6.172;2023-02-17T09:23:17;6.23;;;5.03;;
16037;SDS011;8123;50.906;6.172;2023-02-17T09:25:43;7.27;;;6.10;;
16037;SDS011;8123;50.906;6.172;2023-02-17T09:28:09;5.37;;;4.87;;
16037;SDS011;8123;50.906;6.172;2023-02-17T09:30:35;7.83;;;6.17;;
16037;SDS011;8123;50.906;6.172;2023-02-17T09:33:01;7.30;;;5.80;;
16037;SDS011;8123;50.906;6.172;2023-02-17T09:35:29;5.87;;;5.17;;
16037;SDS011;8123;50.906;6.172;2023-02-17T09:37:55;5.87;;;5.23;;
16037;SDS011;8123;50.906;6.172;2023-02-17T09:40:24;6.10;;;5.60;;
16037;SDS011;8123;50.906;6.172;2023-02-17T09:43:00;7.53;;;5.10;;
16037;SDS011;8123;50.906;6.172;2023-02-17T09:45:27;5.43;;;4.93;;
16037;SDS011;8123;50.906;6.172;2023-02-17T09:48:00;5.03;;;4.57;;
16037;SDS011;8123;50.906;6.172;2023-02-17T09:53:15;5.20;;;4.80;;
16037;SDS011;8123;50.906;6.172;2023-02-17T09:56:07;5.83;;;5.27;;
16037;SDS011;8123;50.906;6.172;2023-02-17T09:58:37;4.80;;;4.30;;
16037;SDS011;8123;50.906;6.172;2023-02-17T10:01:08;7.70;;;5.20;;
16037;SDS011;8123;50.906;6.172;2023-02-17T10:06:17;6.80;;;4.77;;
16037;SDS011;8123;50.906;6.172;2023-02-17T10:14:10;5.10;;;4.67;;
16037;SDS011;8123;50.906;6.172;2023-02-17T10:17:00;6.50;;;4.40;;
16037;SDS011;8123;50.906;6.172;2023-02-17T10:22:00;4.23;;;3.77;;
16037;SDS011;8123;50.906;6.172;2023-02-17T10:24:32;6.87;;;4.60;;
16037;SDS011;8123;50.906;6.172;2023-02-17T10:29:54;4.60;;;4.20;;
16037;SDS011;8123;50.906;6.172;2023-02-17T10:32:46;3.47;;;3.17;;
16037;SDS011;8123;50.906;6.172;2023-02-17T10:35:42;3.90;;;3.60;;
16037;SDS011;8123;50.906;6.172;2023-02-17T10:38:15;4.27;;;3.97;;
16037;SDS011;8123;50.906;6.172;2023-02-17T10:40:50;4.80;;;3.73;;
16037;SDS011;8123;50.906;6.172;2023-02-17T10:43:21;4.43;;;4.03;;
16037;SDS011;8123;50.906;6.172;2023-02-17T10:45:49;3.80;;;3.50;;
16037;SDS011;8123;50.906;6.172;2023-02-17T10:48:49;4.67;;;4.13;;
16037;SDS011;8123;50.906;6.172;2023-02-17T10:51:11;3.20;;;2.90;;
16037;SDS011;8123;50.906;6.172;2023-02-17T10:53:41;4.23;;;3.93;;
16037;SDS011;8123;50.906;6.172;2023-02-17T10:58:51;4.77;;;4.27;;
16037;SDS011;8123;50.906;6.172;2023-02-17T11:01:38;12.77;;;4.30;;
16037;SDS011;8123;50.906;6.172;2023-02-17T11:04:05;4.50;;;4.10;;
16037;SDS011;8123;50.906;6.172;2023-02-17T11:06:35;3.13;;;2.93;;
16037;SDS011;8123;50.906;6.172;2023-02-17T11:11:56;3.30;;;3.00;;
16037;SDS011;8123;50.906;6.172;2023-02-17T11:17:02;3.57;;;3.03;;
16037;SDS011;8123;50.906;6.172;2023-02-17T11:19:38;4.40;;;4.10;;
16037;SDS011;8123;50.906;6.172;2023-02-17T11:22:04;3.63;;;3.33;;
16037;SDS011;8123;50.906;6.172;2023-02-17T11:24:56;3.57;;;2.90;;
16037;SDS011;8123;50.906;6.172;2023-02-17T11:27:24;4.87;;;3.90;;
16037;SDS011;8123;50.906;6.172;2023-02-17T11:29:50;6.07;;;3.10;;
16037;SDS011;8123;50.906;6.172;2023-02-17T11:32:17;4.17;;;3.40;;
16037;SDS011;8123;50.906;6.172;2023-02-17T11:34:44;5.70;;;4.30;;
16037;SDS011;8123;50.906;6.172;2023-02-17T11:37:21;3.00;;;2.80;;
16037;SDS011;8123;50.906;6.172;2023-02-17T11:39:52;3.93;;;3.53;;
16037;SDS011;8123;50.906;6.172;2023-02-17T11:42:37;7.03;;;5.17;;
16037;SDS011;8123;50.906;6.172;2023-02-17T11:45:18;9.60;;;4.63;;
16037;SDS011;8123;50.906;6.172;2023-02-17T11:47:49;4.37;;;3.83;;
16037;SDS011;8123;50.906;6.172;2023-02-17T12:06:12;3.47;;;3.23;;
16037;SDS011;8123;50.906;6.172;2023-02-17T12:14:32;6.17;;;4.00;;
16037;SDS011;8123;50.906;6.172;2023-02-17T12:16:54;14.17;;;3.93;;
16037;SDS011;8123;50.906;6.172;2023-02-17T12:25:34;4.00;;;3.70;;
16037;SDS011;8123;50.906;6.172;2023-02-17T12:36:37;4.43;;;4.00;;
16037;SDS011;8123;50.906;6.172;2023-02-17T12:45:13;3.30;;;3.00;;
16037;SDS011;8123;50.906;6.172;2023-02-17T12:50:31;8.20;;;4.07;;
16037;SDS011;8123;50.906;6.172;2023-02-17T12:53:03;5.90;;;3.70;;
16037;SDS011;8123;50.906;6.172;2023-02-17T12:58:11;8.70;;;3.70;;
16037;SDS011;8123;50.906;6.172;2023-02-17T13:00:46;7.07;;;4.53;;
16037;SDS011;8123;50.906;6.172;2023-02-17T13:03:16;5.77;;;3.97;;
16037;SDS011;8123;50.906;6.172;2023-02-17T13:05:47;4.07;;;3.70;;
16037;SDS011;8123;50.906;6.172;2023-02-17T13:08:41;5.60;;;4.13;;
16037;SDS011;8123;50.906;6.172;2023-02-17T13:11:31;22.27;;;4.50;;
16037;SDS011;8123;50.906;6.172;2023-02-17T13:14:19;7.60;;;3.53;;
16037;SDS011;8123;50.906;6.172;2023-02-17T13:16:53;3.33;;;3.10;;
16037;SDS011;8123;50.906;6.172;2023-02-17T13:19:30;4.90;;;3.50;;
16037;SDS011;8123;50.906;6.172;2023-02-17T13:21:59;13.23;;;3.40;;
16037;SDS011;8123;50.906;6.172;2023-02-17T13:24:36;5.77;;;3.57;;
16037;SDS011;8123;50.906;6.172;2023-02-17T13:32:59;4.70;;;3.83;;
16037;SDS011;8123;50.906;6.172;2023-02-17T13:35:31;3.30;;;3.00;;
16037;SDS011;8123;50.906;6.172;2023-02-17T13:37:59;4.60;;;3.10;;
16037;SDS011;8123;50.906;6.172;2023-02-17T13:40:31;3.60;;;3.30;;
16037;SDS011;8123;50.906;6.172;2023-02-17T13:43:12;2.70;;;2.50;;
16037;SDS011;8123;50.906;6.172;2023-02-17T13:48:27;3.10;;;2.90;;
16037;SDS011;8123;50.906;6.172;2023-02-17T13:50:59;5.57;;;3.23;;
16037;SDS011;8123;50.906;6.172;2023-02-17T13:53:36;4.23;;;3.17;;
16037;SDS011;8123;50.906;6.172;2023-02-17T13:56:04;7.27;;;2.80;;
16037;SDS011;8123;50.906;6.172;2023-02-17T13:58:36;4.17;;;2.83;;
16037;SDS011;8123;50.906;6.172;2023-02-17T14:01:04;2.97;;;2.67;;
16037;SDS011;8123;50.906;6.172;2023-02-17T14:06:03;8.07;;;2.90;;
16037;SDS011;8123;50.906;6.172;2023-02-17T14:08:35;14.13;;;3.57;;
16037;SDS011;8123;50.906;6.172;2023-02-17T14:11:09;3.93;;;3.63;;
16037;SDS011;8123;50.906;6.172;2023-02-17T14:13:41;3.77;;;3.50;;
16037;SDS011;8123;50.906;6.172;2023-02-17T14:19:09;5.73;;;4.20;;
16037;SDS011;8123;50.906;6.172;2023-02-17T14:21:38;6.63;;;5.07;;
16037;SDS011;8123;50.906;6.172;2023-02-17T14:24:29;4.20;;;3.50;;
16037;SDS011;8123;50.906;6.172;2023-02-17T14:27:07;3.20;;;2.67;;
16037;SDS011;8123;50.906;6.172;2023-02-17T14:29:41;4.00;;;2.90;;
16037;SDS011;8123;50.906;6.172;2023-02-17T14:32:24;20.57;;;3.80;;
16037;SDS011;8123;50.906;6.172;2023-02-17T14:34:50;15.53;;;4.10;;
16037;SDS011;8123;50.906;6.172;2023-02-17T14:37:17;3.30;;;3.07;;
16037;SDS011;8123;50.906;6.172;2023-02-17T14:39:55;3.37;;;3.07;;
16037;SDS011;8123;50.906;6.172;2023-02-17T14:42:20;4.00;;;3.70;;
16037;SDS011;8123;50.906;6.172;2023-02-17T14:44:46;6.63;;;3.00;;
16037;SDS011;8123;50.906;6.172;2023-02-17T14:47:11;3.60;;;3.30;;
16037;SDS011;8123;50.906;6.172;2023-02-17T14:49:37;3.60;;;3.30;;
16037;SDS011;8123;50.906;6.172;2023-02-17T14:52:15;5.70;;;3.57;;
16037;SDS011;8123;50.906;6.172;2023-02-17T14:54:43;3.00;;;2.80;;
16037;SDS011;8123;50.906;6.172;2023-02-17T14:57:13;3.50;;;3.17;;
16037;SDS011;8123;50.906;6.172;2023-02-17T14:59:40;3.20;;;3.00;;
16037;SDS011;8123;50.906;6.172;2023-02-17T15:02:13;2.70;;;2.60;;
16037;SDS011;8123;50.906;6.172;2023-02-17T15:04:43;2.90;;;2.60;;
16037;SDS011;8123;50.906;6.172;2023-02-17T15:07:14;3.03;;;2.73;;
16037;SDS011;8123;50.906;6.172;2023-02-17T15:09:45;3.17;;;2.67;;
16037;SDS011;8123;50.906;6.172;2023-02-17T15:12:13;4.40;;;2.37;;
16037;SDS011;8123;50.906;6.172;2023-02-17T15:14:44;3.40;;;2.77;;
16037;SDS011;8123;50.906;6.172;2023-02-17T15:17:13;2.10;;;2.00;;
16037;SDS011;8123;50.906;6.172;2023-02-17T15:19:39;2.97;;;1.97;;
16037;SDS011;8123;50.906;6.172;2023-02-17T15:22:08;1.70;;;1.60;;
16037;SDS011;8123;50.906;6.172;2023-02-17T15:24:36;7.00;;;2.03;;
16037;SDS011;8123;50.906;6.172;2023-02-17T15:27:03;2.53;;;2.00;;
16037;SDS011;8123;50.906;6.172;2023-02-17T15:29:29;2.10;;;2.00;;
16037;SDS011;8123;50.906;6.172;2023-02-17T15:31:56;2.30;;;2.20;;
16037;SDS011;8123;50.906;6.172;2023-02-17T15:34:25;3.80;;;2.20;;
16037;SDS011;8123;50.906;6.172;2023-02-17T15:36:55;2.00;;;1.50;;
16037;SDS011;8123;50.906;6.172;2023-02-17T15:39:20;2.40;;;1.50;;
16037;SDS011;8123;50.906;6.172;2023-02-17T15:41:46;1.33;;;1.23;;
16037;SDS011;8123;50.906;6.172;2023-02-17T15:44:18;2.57;;;1.40;;
16037;SDS011;8123;50.906;6.172;2023-02-17T15:46:48;3.73;;;1.90;;
16037;SDS011;8123;50.906;6.172;2023-02-17T15:49:15;3.70;;;1.60;;
16037;SDS011;8123;50.906;6.172;2023-02-17T15:51:41;2.30;;;1.93;;
16037;SDS011;8123;50.906;6.172;2023-02-17T15:54:07;1.73;;;1.70;;
16037;SDS011;8123;50.906;6.172;2023-02-17T15:56:50;4.20;;;1.53;;
16037;SDS011;8123;50.906;6.172;2023-02-17T15:59:18;2.30;;;2.10;;
16037;SDS011;8123;50.906;6.172;2023-02-17T16:01:48;2.13;;;2.00;;
16037;SDS011;8123;50.906;6.172;2023-02-17T16:04:20;2.30;;;2.20;;
16037;SDS011;8123;50.906;6.172;2023-02-17T16:06:46;4.23;;;1.90;;
16037;SDS011;8123;50.906;6.172;2023-02-17T16:09:11;6.37;;;2.07;;
16037;SDS011;8123;50.906;6.172;2023-02-17T16:11:48;2.50;;;2.30;;
16037;SDS011;8123;50.906;6.172;2023-02-17T16:14:37;2.20;;;2.00;;
16037;SDS011;8123;50.906;6.172;2023-02-17T16:17:03;2.10;;;1.73;;
16037;SDS011;8123;50.906;6.172;2023-02-17T16:19:29;3.03;;;2.80;;
16037;SDS011;8123;50.906;6.172;2023-02-17T16:21:55;3.30;;;3.10;;
16037;SDS011;8123;50.906;6.172;2023-02-17T16:24:21;4.80;;;3.40;;
16037;SDS011;8123;50.906;6.172;2023-02-17T16:26:47;6.50;;;4.47;;
16037;SDS011;8123;50.906;6.172;2023-02-17T16:29:14;2.93;;;2.70;;
16037;SDS011;8123;50.906;6.172;2023-02-17T16:31:44;2.87;;;2.67;;
16037;SDS011;8123;50.906;6.172;2023-02-17T16:34:21;3.80;;;3.20;;
16037;SDS011;8123;50.906;6.172;2023-02-17T16:36:48;10.17;;;3.17;;
16037;SDS011;8123;50.906;6.172;2023-02-17T16:41:51;3.67;;;3.07;;
16037;SDS011;8123;50.906;6.172;2023-02-17T16:44:18;2.70;;;2.60;;
16037;SDS011;8123;50.906;6.172;2023-02-17T16:46:46;3.70;;;3.50;;
16037;SDS011;8123;50.906;6.172;2023-02-17T16:49:18;13.00;;;3.30;;
16037;SDS011;8123;50.906;6.172;2023-02-17T16:51:43;5.13;;;3.00;;
16037;SDS011;8123;50.906;6.172;2023-02-17T16:54:10;3.07;;;2.73;;
16037;SDS011;8123;50.906;6.172;2023-02-17T16:56:38;6.10;;;3.67;;
16037;SDS011;8123;50.906;6.172;2023-02-17T16:59:15;3.70;;;3.20;;